Time;durP1;ratioP1;P1;durP2;ratioP2;P2;SDS_P1;SDS_P2;PMS_P1;PMS_P2;Temp;Humidity;BMP_temperature;BMP_pressure;BME280_temperature;BME280_humidity;BME280_pressure;Samples;Min_cycle;Max_cycle;Signal;HPM_P1;HPM_P2
2024/02/05 00:01:17;;;;;;;10.30;4.20;;;;;;;6.28;100.00;99363.60;106537;1253;97249;-81
2024/02/05 00:04:04;;;;;;;16.70;5.90;;;;;;;6.27;100.00;99364.15;106476;1256;101763;-80
2024/02/05 00:06:49;;;;;;;10.40;4.20;;;;;;;6.24;100.00;99359.46;106687;1256;99111;-80
2024/02/05 00:09:35;;;;;;;12.70;5.00;;;;;;;6.21;100.00;99356.45;106734;1253;98988;-80
2024/02/05 00:12:21;;;;;;;14.40;5.50;;;;;;;6.19;100.00;99359.61;106612;1252;96681;-82
2024/02/05 00:15:07;;;;;;;13.30;5.40;;;;;;;6.16;100.00;99358.02;106952;1253;97046;-80
2024/02/05 00:18:03;;;;;;;10.60;5.10;;;;;;;6.14;100.00;99357.20;106971;1253;100068;-81
2024/02/05 00:20:49;;;;;;;17.50;4.90;;;;;;;6.12;100.00;99349.08;106960;1252;99551;-81
2024/02/05 00:23:35;;;;;;;8.40;4.50;;;;;;;6.12;100.00;99342.94;106949;1254;99084;-81
2024/02/05 00:26:20;;;;;;;4.80;3.40;;;;;;;6.12;100.00;99339.70;107194;1253;97781;-80
2024/02/05 00:29:08;;;;;;;9.80;4.40;;;;;;;6.12;100.00;99337.71;106940;1253;97171;-81
2024/02/05 00:31:55;;;;;;;15.80;5.70;;;;;;;6.13;100.00;99332.69;106884;1253;101041;-81
2024/02/05 00:34:40;;;;;;;13.80;7.50;;;;;;;6.14;100.00;99329.86;107076;1253;99228;-81
2024/02/05 00:37:26;;;;;;;10.40;5.40;;;;;;;6.16;100.00;99329.68;106920;1253;97650;-78
2024/02/05 00:40:12;;;;;;;11.00;4.20;;;;;;;6.18;100.00;99330.14;106883;1256;96597;-80
2024/02/05 00:42:57;;;;;;;10.30;4.20;;;;;;;6.19;100.00;99328.23;106882;1253;97062;-79
2024/02/05 00:45:43;;;;;;;9.30;3.50;;;;;;;6.20;100.00;99319.05;107045;1256;99972;-81
2024/02/05 00:48:29;;;;;;;7.00;3.80;;;;;;;6.21;100.00;99320.70;106982;1254;100346;-80
2024/02/05 00:51:15;;;;;;;8.50;4.30;;;;;;;6.23;100.00;99325.21;107043;1254;97573;-80
2024/02/05 00:54:02;;;;;;;6.90;3.80;;;;;;;6.26;100.00;99324.70;106919;1256;96873;-81
2024/02/05 00:56:47;;;;;;;6.50;3.10;;;;;;;6.28;100.00;99312.58;106919;1256;97197;-80
2024/02/05 00:59:33;;;;;;;7.50;4.10;;;;;;;6.30;100.00;99307.98;106420;1253;100777;-78
2024/02/05 01:02:18;;;;;;;9.90;3.80;;;;;;;6.31;100.00;99309.73;107113;1254;100062;-80
2024/02/05 01:05:05;;;;;;;11.70;4.20;;;;;;;6.32;100.00;99311.18;106793;1253;97798;-81
2024/02/05 01:07:51;;;;;;;7.50;3.00;;;;;;;6.33;100.00;99309.67;106864;1257;96518;-80
2024/02/05 01:10:37;;;;;;;7.30;3.50;;;;;;;6.33;100.00;99312.50;107051;1253;96520;-81
2024/02/05 01:13:22;;;;;;;9.60;3.70;;;;;;;6.33;100.00;99312.88;106855;1256;100168;-81
2024/02/05 01:16:08;;;;;;;10.70;4.50;;;;;;;6.32;100.00;99318.63;106935;1254;100833;-80
2024/02/05 01:18:54;;;;;;;5.50;3.60;;;;;;;6.32;100.00;99317.98;106994;1253;97787;-80
2024/02/05 01:21:39;;;;;;;6.40;3.70;;;;;;;6.32;100.00;99327.48;107027;1256;95896;-81
2024/02/05 01:24:25;;;;;;;8.00;3.30;;;;;;;6.32;100.00;99320.06;106986;1254;96636;-80
2024/02/05 01:27:11;;;;;;;8.30;3.20;;;;;;;6.32;100.00;99311.92;107079;1256;100154;-81
2024/02/05 01:29:57;;;;;;;9.30;3.40;;;;;;;6.32;100.00;99311.92;106879;1256;99064;-81
2024/02/05 01:32:42;;;;;;;7.60;3.90;;;;;;;6.32;100.00;99304.60;106933;1253;97726;-82
2024/02/05 01:35:28;;;;;;;6.70;3.50;;;;;;;6.33;100.00;99306.25;106944;1253;96609;-81
2024/02/05 01:38:15;;;;;;;7.20;3.50;;;;;;;6.34;100.00;99307.15;106993;1256;97378;-81
2024/02/05 01:41:00;;;;;;;5.90;3.60;;;;;;;6.36;100.00;99304.44;106958;1253;100027;-81
2024/02/05 01:43:46;;;;;;;5.80;3.40;;;;;;;6.38;100.00;99306.87;106904;1256;100397;-80
2024/02/05 01:46:32;;;;;;;10.70;3.80;;;;;;;6.38;100.00;99300.33;106979;1253;97696;-81
2024/02/05 01:49:18;;;;;;;8.90;2.70;;;;;;;6.40;100.00;99294.98;106881;1258;96615;-81
2024/02/05 01:52:08;;;;;;;6.90;3.10;;;;;;;6.41;100.00;99292.36;107129;1253;96524;-81
2024/02/05 01:54:54;;;;;;;5.80;2.60;;;;;;;6.42;100.00;99286.39;106920;1253;99955;-80
2024/02/05 01:57:40;;;;;;;5.80;2.70;;;;;;;6.42;100.00;99281.69;106928;1256;100320;-82
2024/02/05 02:00:26;;;;;;;5.00;2.50;;;;;;;6.43;100.00;99271.88;106924;1256;97784;-81
2024/02/05 02:03:12;;;;;;;5.00;2.80;;;;;;;6.43;100.00;99271.63;106905;1259;96621;-81
2024/02/05 02:05:58;;;;;;;6.10;3.60;;;;;;;6.44;100.00;99266.27;106810;1260;96859;-81
2024/02/05 02:08:45;;;;;;;8.50;3.40;;;;;;;6.45;100.00;99265.79;107036;1253;101373;-81
2024/02/05 02:11:30;;;;;;;6.80;4.20;;;;;;;6.45;100.00;99256.88;107101;1256;99124;-81
2024/02/05 02:14:16;;;;;;;8.70;6.30;;;;;;;6.45;100.00;99256.51;106922;1256;98981;-81
2024/02/05 02:17:01;;;;;;;7.10;4.10;;;;;;;6.45;100.00;99253.52;107042;1253;96511;-82
2024/02/05 02:19:51;;;;;;;6.30;3.00;;;;;;;6.45;100.00;99252.66;106982;1253;97801;-81
2024/02/05 02:22:41;;;;;;;4.70;2.90;;;;;;;6.44;100.00;99253.77;107249;1254;99974;-81
2024/02/05 02:25:27;;;;;;;3.90;2.70;;;;;;;6.43;100.00;99251.42;107156;1254;99670;-80
2024/02/05 02:28:12;;;;;;;2.80;2.40;;;;;;;6.41;100.00;99252.55;106983;1253;97764;-81
2024/02/05 02:31:00;;;;;;;4.00;2.50;;;;;;;6.39;100.00;99254.25;107055;1253;96530;-80
2024/02/05 02:33:57;;;;;;;2.80;2.40;;;;;;;6.36;100.00;99242.48;106980;1254;97033;-81
2024/02/05 02:36:55;;;;;;;3.30;2.50;;;;;;;6.31;100.00;99233.54;107097;1253;100025;-82
2024/02/05 02:40:09;;;;;;;4.10;2.60;;;;;;;6.27;100.00;99226.14;107177;1253;100102;-81
2024/02/05 02:43:03;;;;;;;3.30;2.50;;;;;;;6.23;100.00;99222.02;106967;1252;97700;-81
2024/02/05 02:45:51;;;;;;;4.70;2.80;;;;;;;6.19;100.00;99214.19;107043;1252;96519;-81
2024/02/05 02:48:36;;;;;;;4.70;2.40;;;;;;;6.16;100.00;99210.51;107080;1256;96645;-82
2024/02/05 02:51:23;;;;;;;4.80;2.60;;;;;;;6.15;100.00;99205.75;107101;1253;101292;-82
2024/02/05 02:54:08;;;;;;;4.90;2.70;;;;;;;6.14;100.00;99208.36;107052;1254;100549;-82
2024/02/05 02:56:54;;;;;;;4.80;3.20;;;;;;;6.12;100.00;99201.52;106908;1258;99027;-82
2024/02/05 02:59:39;;;;;;;3.50;2.70;;;;;;;6.09;100.00;99196.53;106948;1256;97125;-82
2024/02/05 03:02:25;;;;;;;3.30;3.00;;;;;;;6.08;100.00;99195.09;107160;1256;97145;-81
2024/02/05 03:05:11;;;;;;;4.90;2.70;;;;;;;6.07;100.00;99201.39;106905;1254;99997;-82
2024/02/05 03:07:56;;;;;;;5.30;3.00;;;;;;;6.06;100.00;99202.27;106922;1253;100800;-81
2024/02/05 03:10:41;;;;;;;6.60;3.30;;;;;;;6.03;100.00;99205.85;107019;1254;97711;-82
2024/02/05 03:13:27;;;;;;;4.70;3.50;;;;;;;6.02;100.00;99197.70;107072;1256;96603;-81
2024/02/05 03:16:12;;;;;;;4.00;3.40;;;;;;;6.00;100.00;99192.16;107055;1253;97039;-82
2024/02/05 03:18:58;;;;;;;5.80;4.00;;;;;;;6.00;100.00;99185.55;106957;1258;100527;-82
2024/02/05 03:21:44;;;;;;;4.00;3.10;;;;;;;5.99;100.00;99183.00;106924;1256;100346;-81
2024/02/05 03:24:29;;;;;;;4.80;3.30;;;;;;;5.99;100.00;99179.70;106794;1253;97813;-82
2024/02/05 03:27:14;;;;;;;4.00;3.50;;;;;;;5.99;100.00;99182.72;107048;1256;96520;-82
2024/02/05 03:30:00;;;;;;;7.60;6.20;;;;;;;6.00;100.00;99187.20;106955;1256;97013;-82
2024/02/05 03:32:46;;;;;;;5.30;4.60;;;;;;;6.00;100.00;99181.58;106780;1251;100059;-82
2024/02/05 03:35:31;;;;;;;6.10;3.70;;;;;;;6.01;100.00;99186.00;106842;1254;100344;-80
2024/02/05 03:38:17;;;;;;;5.00;3.80;;;;;;;6.02;100.00;99195.53;106155;1254;97806;-79
2024/02/05 03:41:03;;;;;;;5.10;4.10;;;;;;;6.02;100.00;99188.56;106303;1253;96694;-80
2024/02/05 03:43:48;;;;;;;9.90;7.00;;;;;;;6.03;100.00;99186.19;106905;1254;97050;-81
2024/02/05 03:46:34;;;;;;;9.20;5.00;;;;;;;6.03;100.00;99188.30;107061;1254;100836;-81
2024/02/05 03:49:20;;;;;;;5.00;4.50;;;;;;;6.03;100.00;99195.84;107101;1253;100439;-80
2024/02/05 03:52:05;;;;;;;10.10;4.20;;;;;;;6.03;100.00;99198.70;106861;1253;98890;-80
2024/02/05 03:54:52;;;;;;;3.80;3.50;;;;;;;6.03;100.00;99194.15;107066;1254;96533;-81
2024/02/05 03:57:42;;;;;;;3.90;3.30;;;;;;;6.03;100.00;99189.70;106854;1259;97974;-81
2024/02/05 04:00:28;;;;;;;4.20;3.00;;;;;;;6.03;100.00;99187.77;107000;1253;101258;-80
2024/02/05 04:03:14;;;;;;;4.00;2.90;;;;;;;6.03;100.00;99182.79;107027;1253;100066;-81
2024/02/05 04:06:00;;;;;;;2.70;2.50;;;;;;;6.03;100.00;99171.30;107091;1256;97793;-80
2024/02/05 04:08:45;;;;;;;3.10;2.80;;;;;;;6.04;100.00;99172.25;106421;1258;96612;-81
2024/02/05 04:11:31;;;;;;;3.00;2.50;;;;;;;6.05;100.00;99162.64;106977;1256;97157;-80
2024/02/05 04:14:16;;;;;;;3.10;2.50;;;;;;;6.07;100.00;99159.91;107024;1253;100128;-79
2024/02/05 04:17:02;;;;;;;3.00;2.20;;;;;;;6.08;100.00;99157.14;106972;1253;100452;-81
2024/02/05 04:19:48;;;;;;;4.10;2.80;;;;;;;6.10;100.00;99154.59;106900;1253;99731;-81
2024/02/05 04:22:37;;;;;;;3.00;2.70;;;;;;;6.12;100.00;99156.60;106926;1252;97868;-81
2024/02/05 04:25:22;;;;;;;2.70;2.30;;;;;;;6.15;100.00;99160.75;107092;1254;96520;-81
2024/02/05 04:28:08;;;;;;;4.60;2.90;;;;;;;6.16;100.00;99154.48;106992;1254;99970;-80
2024/02/05 04:30:53;;;;;;;3.60;2.70;;;;;;;6.19;100.00;99152.01;107119;1256;100441;-80
2024/02/05 04:33:40;;;;;;;2.40;2.00;;;;;;;6.21;100.00;99157.49;106871;1253;97918;-80
2024/02/05 04:36:26;;;;;;;2.80;2.40;;;;;;;6.22;100.00;99153.08;106940;1254;97973;-80
2024/02/05 04:39:12;;;;;;;4.20;2.60;;;;;;;6.23;100.00;99153.09;106951;1259;96497;-81
2024/02/05 04:41:57;;;;;;;2.70;2.50;;;;;;;6.24;100.00;99145.89;106847;1254;100132;-80
2024/02/05 04:44:42;;;;;;;4.20;2.40;;;;;;;6.26;100.00;99147.82;106905;1254;99095;-80
2024/02/05 04:47:28;;;;;;;3.10;2.60;;;;;;;6.26;100.00;99152.05;106950;1259;99470;-81
2024/02/05 04:50:14;;;;;;;2.80;2.60;;;;;;;6.27;100.00;99142.05;106944;1253;96609;-80
2024/02/05 04:53:00;;;;;;;4.20;2.90;;;;;;;6.27;100.00;99141.81;106973;1254;98048;-81
2024/02/05 04:55:45;;;;;;;2.90;2.60;;;;;;;6.27;100.00;99140.17;107010;1256;101427;-81
2024/02/05 04:58:31;;;;;;;3.40;3.00;;;;;;;6.27;100.00;99129.09;107041;1254;100376;-81
2024/02/05 05:01:16;;;;;;;3.90;3.20;;;;;;;6.26;100.00;99117.10;106915;1254;100336;-81
2024/02/05 05:04:02;;;;;;;3.10;2.60;;;;;;;6.25;100.00;99121.73;107002;1254;97017;-80
2024/02/05 05:06:48;;;;;;;3.60;3.20;;;;;;;6.22;100.00;99123.75;106946;1259;97227;-81
2024/02/05 05:09:33;;;;;;;3.30;2.80;;;;;;;6.21;100.00;99137.25;106925;1253;100920;-81
2024/02/05 05:12:19;;;;;;;3.40;2.80;;;;;;;6.20;100.00;99141.77;106966;1256;99895;-81
2024/02/05 05:15:04;;;;;;;3.10;2.60;;;;;;;6.19;100.00;99137.89;107093;1255;97772;-80
2024/02/05 05:17:50;;;;;;;3.30;3.00;;;;;;;6.18;100.00;99134.37;106928;1256;96396;-81
2024/02/05 05:20:36;;;;;;;3.20;2.90;;;;;;;6.17;100.00;99144.98;106960;1254;96522;-81
2024/02/05 05:23:22;;;;;;;3.60;3.00;;;;;;;6.16;100.00;99142.45;106890;1259;99968;-81
2024/02/05 05:26:07;;;;;;;2.90;2.70;;;;;;;6.16;100.00;99144.11;107056;1256;99101;-81
2024/02/05 05:28:53;;;;;;;2.80;2.60;;;;;;;6.16;100.00;99137.13;106924;1256;99288;-81
2024/02/05 05:31:38;;;;;;;3.30;2.70;;;;;;;6.17;100.00;99123.87;106762;1256;95826;-80
2024/02/05 05:34:24;;;;;;;5.20;3.90;;;;;;;6.19;100.00;99140.84;106798;1258;96619;-80
2024/02/05 05:37:09;;;;;;;3.30;3.00;;;;;;;6.21;100.00;99143.83;106947;1256;101272;-80
2024/02/05 05:39:55;;;;;;;3.90;3.50;;;;;;;6.23;100.00;99132.35;106970;1257;99085;-80
2024/02/05 05:42:40;;;;;;;4.50;3.70;;;;;;;6.23;100.00;99123.27;106929;1256;99318;-81
2024/02/05 05:45:29;;;;;;;4.20;3.30;;;;;;;6.23;100.00;99136.96;106978;1256;96328;-80
2024/02/05 05:48:14;;;;;;;3.90;3.50;;;;;;;6.23;100.00;99138.40;106534;1256;96428;-80
2024/02/05 05:51:00;;;;;;;6.10;4.40;;;;;;;6.23;100.00;99132.55;106993;1266;100090;-79
2024/02/05 05:53:45;;;;;;;8.70;7.10;;;;;;;6.23;100.00;99135.01;106564;1257;100321;-80
2024/02/05 05:56:31;;;;;;;5.20;4.70;;;;;;;6.23;100.00;99134.27;106473;1254;97752;-79
2024/02/05 05:59:18;;;;;;;4.70;3.50;;;;;;;6.24;100.00;99147.12;106965;1256;96599;-80
2024/02/05 06:02:04;;;;;;;4.00;1.90;;;;;;;6.26;100.00;99152.20;106887;1259;97227;-80
2024/02/05 06:04:50;;;;;;;2.20;2.00;;;;;;;6.29;100.00;99140.52;107047;1253;100019;-80
2024/02/05 06:07:36;;;;;;;2.70;1.80;;;;;;;6.30;100.00;99134.31;107041;1255;100170;-80
2024/02/05 06:10:21;;;;;;;2.30;1.70;;;;;;;6.31;100.00;99149.27;106794;1254;98472;-80
2024/02/05 06:13:07;;;;;;;2.20;1.70;;;;;;;6.32;100.00;99142.71;107071;1254;96608;-82
2024/02/05 06:15:52;;;;;;;2.50;1.80;;;;;;;6.35;100.00;99145.25;106955;1254;95867;-81
2024/02/05 06:18:37;;;;;;;2.60;1.30;;;;;;;6.36;100.00;99145.23;107045;1257;101285;-81
2024/02/05 06:21:23;;;;;;;3.20;1.50;;;;;;;6.38;100.00;99154.38;106921;1254;100349;-82
2024/02/05 06:24:10;;;;;;;3.70;1.40;;;;;;;6.40;100.00;99153.41;107117;1266;99074;-81
2024/02/05 06:26:55;;;;;;;1.40;1.30;;;;;;;6.43;100.00;99148.15;106920;1257;96562;-81
2024/02/05 06:29:40;;;;;;;1.70;1.40;;;;;;;6.44;100.00;99161.57;107046;1257;97093;-82
2024/02/05 06:32:26;;;;;;;1.90;1.20;;;;;;;6.45;100.00;99155.41;106751;1253;100116;-81
2024/02/05 06:35:11;;;;;;;1.60;1.50;;;;;;;6.46;100.00;99159.17;106910;1256;99056;-81
2024/02/05 06:37:57;;;;;;;1.40;1.30;;;;;;;6.46;100.00;99164.12;106907;1254;97783;-81
2024/02/05 06:40:43;;;;;;;2.00;1.30;;;;;;;6.47;100.00;99159.58;106835;1257;96718;-82
2024/02/05 06:43:29;;;;;;;1.40;1.20;;;;;;;6.48;100.00;99163.35;106818;1254;97796;-79
2024/02/05 06:46:15;;;;;;;1.10;1.00;;;;;;;6.50;100.00;99162.30;106852;1257;100027;-81
2024/02/05 06:49:00;;;;;;;1.70;1.30;;;;;;;6.52;100.00;99162.23;106885;1256;99113;-80
2024/02/05 06:51:46;;;;;;;1.90;1.30;;;;;;;6.53;100.00;99169.95;106972;1257;99473;-80
2024/02/05 06:54:32;;;;;;;1.40;1.20;;;;;;;6.56;100.00;99170.36;106718;1254;96546;-81
2024/02/05 06:57:19;;;;;;;1.30;1.20;;;;;;;6.58;100.00;99177.33;106897;1254;97100;-81
2024/02/05 07:00:06;;;;;;;1.80;1.30;;;;;;;6.61;100.00;99176.61;106975;1261;99990;-83
2024/02/05 07:02:52;;;;;;;2.50;1.70;;;;;;;6.64;100.00;99180.81;107080;1251;99236;-80
2024/02/05 07:05:38;;;;;;;1.70;1.40;;;;;;;6.67;100.00;99175.59;106337;1251;97653;-80
2024/02/05 07:08:24;;;;;;;4.60;3.00;;;;;;;6.72;100.00;99181.02;106841;1257;96674;-81
2024/02/05 07:11:09;;;;;;;3.90;3.00;;;;;;;6.77;100.00;99181.61;106801;1254;96637;-81
2024/02/05 07:13:55;;;;;;;1.70;1.40;;;;;;;6.81;100.00;99184.46;107118;1255;100534;-81
2024/02/05 07:16:40;;;;;;;2.30;1.30;;;;;;;6.85;100.00;99185.55;106478;1266;99138;-80
2024/02/05 07:19:26;;;;;;;1.30;1.10;;;;;;;6.88;100.00;99192.63;106598;1254;187650;-81
2024/02/05 07:22:12;;;;;;;1.50;1.20;;;;;;;6.90;100.00;99203.80;106800;1251;96430;-81
2024/02/05 07:24:58;;;;;;;2.40;2.00;;;;;;;6.92;100.00;99202.98;107124;1251;96612;-80
2024/02/05 07:27:43;;;;;;;3.70;1.40;;;;;;;6.95;100.00;99205.56;107116;1255;101064;-80
2024/02/05 07:30:30;;;;;;;3.40;2.40;;;;;;;6.96;100.00;99212.10;106971;1254;100511;-81
2024/02/05 07:33:17;;;;;;;3.00;1.90;;;;;;;6.98;100.00;99211.09;106999;1255;98951;-80
2024/02/05 07:36:03;;;;;;;1.90;1.20;;;;;;;7.01;100.00;99214.55;106470;1255;97820;-80
2024/02/05 07:38:49;;;;;;;2.40;1.60;;;;;;;7.03;100.00;99223.85;106723;1260;97020;-81
2024/02/05 07:41:34;;;;;;;1.70;1.30;;;;;;;7.05;100.00;99223.29;106835;1254;101026;-79
2024/02/05 07:44:20;;;;;;;1.70;1.30;;;;;;;7.07;100.00;99219.90;106971;1258;99066;-80
2024/02/05 07:47:05;;;;;;;1.50;0.80;;;;;;;7.10;100.00;99222.98;106454;1255;98756;-81
2024/02/05 07:49:51;;;;;;;1.00;0.90;;;;;;;7.12;100.00;99219.48;107030;1254;97647;-80
2024/02/05 07:52:37;;;;;;;1.40;1.00;;;;;;;7.14;100.00;99216.73;106805;1254;96606;-80
2024/02/05 07:55:22;;;;;;;1.00;0.80;;;;;;;7.17;100.00;99223.65;106545;1254;99989;-80
2024/02/05 07:58:09;;;;;;;1.60;0.70;;;;;;;7.18;100.00;99229.52;106761;1254;100398;-80
2024/02/05 08:00:54;;;;;;;1.40;0.50;;;;;;;7.16;100.00;99249.63;106854;1254;97697;-80
2024/02/05 08:03:40;;;;;;;1.40;0.60;;;;;;;7.05;100.00;99253.07;106413;1260;97852;-80
2024/02/05 08:06:28;;;;;;;1.40;0.50;;;;;;;6.83;100.00;99246.63;107062;1260;95850;-80
2024/02/05 08:09:14;;;;;;;1.10;0.40;;;;;;;6.63;100.00;99250.30;107211;1254;99970;-81
2024/02/05 08:11:59;;;;;;;2.70;0.40;;;;;;;6.46;100.00;99245.67;107105;1254;99123;-81
2024/02/05 08:14:46;;;;;;;0.40;0.40;;;;;;;6.34;100.00;99262.48;107084;1256;97841;-81
2024/02/05 08:17:31;;;;;;;1.50;0.70;;;;;;;6.27;100.00;99275.80;106933;1257;95912;-81
2024/02/05 08:20:16;;;;;;;1.10;0.60;;;;;;;6.22;100.00;99278.36;106547;1257;96611;-85
2024/02/05 08:23:02;;;;;;;0.90;0.80;;;;;;;6.21;100.00;99267.69;106275;1263;100067;-85
2024/02/05 08:25:48;;;;;;;0.90;0.60;;;;;;;6.24;100.00;99269.47;106542;1257;100475;-82
2024/02/05 08:28:34;;;;;;;0.90;0.50;;;;;;;6.27;100.00;99282.91;106441;1257;98657;-80
2024/02/05 08:31:20;;;;;;;1.50;1.00;;;;;;;6.29;100.00;99290.30;106454;1257;97497;-85
2024/02/05 08:34:06;;;;;;;1.70;1.00;;;;;;;6.31;100.00;99290.31;106372;1260;97125;-84
2024/02/05 08:36:52;;;;;;;1.70;1.10;;;;;;;6.33;100.00;99284.52;106130;1261;100082;-85
2024/02/05 08:39:38;;;;;;;1.20;1.10;;;;;;;6.35;100.00;99290.95;106245;1261;99658;-83
2024/02/05 08:42:24;;;;;;;2.00;1.30;;;;;;;6.38;100.00;99290.17;106362;1257;98801;-86
2024/02/05 08:45:10;;;;;;;1.70;1.40;;;;;;;6.42;100.00;99290.95;106085;1257;97198;-85
2024/02/05 08:47:55;;;;;;;2.70;2.00;;;;;;;6.45;100.00;99303.36;106176;1257;97125;-83
2024/02/05 08:50:41;;;;;;;3.60;2.40;;;;;;;6.47;100.00;99306.20;106449;1257;100107;-83
2024/02/05 08:53:27;;;;;;;2.50;2.00;;;;;;;6.50;100.00;99307.98;106827;1256;99205;-81
2024/02/05 08:56:13;;;;;;;2.60;1.50;;;;;;;6.53;100.00;99309.98;107026;1257;98848;-82
2024/02/05 08:58:58;;;;;;;2.80;2.00;;;;;;;6.56;100.00;99309.92;106837;1257;96725;-81
2024/02/05 09:01:44;;;;;;;4.60;3.80;;;;;;;6.60;100.00;99312.61;106811;1257;96609;-80
2024/02/05 09:04:30;;;;;;;5.00;2.40;;;;;;;6.65;100.00;99318.02;106976;1257;101284;-80
2024/02/05 09:07:16;;;;;;;2.60;1.70;;;;;;;6.69;100.00;99324.18;106992;1257;100334;-79
2024/02/05 09:10:02;;;;;;;11.10;6.80;;;;;;;6.73;100.00;99321.16;106785;1257;97809;-81
2024/02/05 09:12:48;;;;;;;4.10;2.60;;;;;;;6.77;100.00;99315.16;106935;1257;96534;-81
2024/02/05 09:15:33;;;;;;;1.50;1.40;;;;;;;6.80;100.00;99322.97;106871;1257;96611;-81
2024/02/05 09:18:22;;;;;;;2.60;1.50;;;;;;;6.82;100.00;99326.39;106997;1257;100050;-81
2024/02/05 09:21:07;;;;;;;2.00;1.20;;;;;;;6.84;100.00;99324.10;106746;1256;99742;-81
2024/02/05 09:23:53;;;;;;;2.30;1.20;;;;;;;6.85;100.00;99327.63;106439;1257;97925;-79
2024/02/05 09:26:38;;;;;;;3.30;1.20;;;;;;;6.88;100.00;99329.25;105964;1260;96574;-79
2024/02/05 09:29:24;;;;;;;2.50;1.20;;;;;;;6.90;100.00;99331.44;105943;1262;96611;-80
2024/02/05 09:32:10;;;;;;;3.00;1.90;;;;;;;6.94;100.00;99335.64;106102;1260;99937;-80
2024/02/05 09:34:58;;;;;;;3.00;2.00;;;;;;;7.00;100.00;99326.64;106084;1257;100584;-80
2024/02/05 09:37:44;;;;;;;7.80;3.40;;;;;;;7.03;100.00;99321.40;106153;1257;99047;-81
2024/02/05 09:40:30;;;;;;;4.10;2.50;;;;;;;7.06;100.00;99322.16;106021;1260;97514;-79
2024/02/05 09:43:16;;;;;;;5.20;2.20;;;;;;;7.09;100.00;99323.05;108460;1256;94116;-81
2024/02/05 09:46:04;;;;;;;2.40;1.80;;;;;;;7.11;100.00;99332.85;106085;1260;100084;-80
2024/02/05 09:48:51;;;;;;;4.10;2.00;;;;;;;7.14;100.00;99344.05;106004;1258;99270;-81
2024/02/05 09:51:37;;;;;;;3.50;1.60;;;;;;;7.17;100.00;99345.23;106367;1260;97881;-85
2024/02/05 09:54:26;;;;;;;5.40;2.20;;;;;;;7.21;100.00;99343.98;106127;1257;96641;-85
2024/02/05 09:57:12;;;;;;;5.10;1.80;;;;;;;7.27;100.00;99348.35;106194;1257;96543;-84
2024/02/05 09:59:57;;;;;;;3.20;1.60;;;;;;;7.33;100.00;99350.36;106134;1257;100071;-83
2024/02/05 10:02:43;;;;;;;3.60;1.70;;;;;;;7.40;100.00;99346.30;106078;1262;100473;-82
2024/02/05 10:05:30;;;;;;;4.10;1.60;;;;;;;7.47;100.00;99351.38;108407;1256;98469;-83
2024/02/05 10:08:17;;;;;;;3.50;1.30;;;;;;;7.53;100.00;99349.16;106836;1256;96684;-85
2024/02/05 10:11:08;;;;;;;3.40;1.40;;;;;;;7.58;100.00;99339.27;106154;1255;97026;-80
2024/02/05 10:13:55;;;;;;;1.90;1.30;;;;;;;7.62;100.00;99332.72;106150;1256;100732;-85
2024/02/05 10:16:43;;;;;;;2.20;1.20;;;;;;;7.65;100.00;99330.18;106181;1260;100311;-84
2024/02/05 10:19:29;;;;;;;1.60;1.20;;;;;;;7.66;100.00;99330.73;106175;1257;99928;-82
2024/02/05 10:22:14;;;;;;;4.30;1.60;;;;;;;7.66;100.00;99345.36;106240;1257;96264;-80
2024/02/05 10:25:03;;;;;;;3.80;1.70;;;;;;;7.65;100.00;99338.97;106626;1256;96613;-82
2024/02/05 10:27:49;;;;;;;3.00;1.90;;;;;;;7.64;100.00;99335.68;106924;1260;101277;-83
2024/02/05 10:30:35;;;;;;;3.50;1.60;;;;;;;7.62;100.00;99331.12;106779;1263;100463;-84
2024/02/05 10:33:23;;;;;;;1.50;1.00;;;;;;;7.62;100.00;99334.81;106474;1256;99109;-84
2024/02/05 10:36:11;;;;;;;2.10;1.40;;;;;;;7.65;100.00;99335.96;107279;1260;96604;-87
2024/02/05 10:38:57;;;;;;;4.50;1.90;;;;;;;7.65;100.00;99339.41;106526;1261;96609;-85
2024/02/05 10:41:42;;;;;;;6.60;3.40;;;;;;;7.66;100.00;99334.58;106123;1260;100109;-84
2024/02/05 10:44:28;;;;;;;2.70;1.60;;;;;;;7.66;100.00;99340.56;106244;1262;99962;-82
2024/02/05 10:47:19;;;;;;;2.20;0.90;;;;;;;7.60;99.85;99343.86;106017;1256;99035;-83
2024/02/05 10:50:10;;;;;;;4.00;1.10;;;;;;;7.45;99.53;99348.49;106239;1257;96724;-85
2024/02/05 10:52:56;;;;;;;1.80;0.80;;;;;;;7.29;99.56;99349.67;106187;1256;96655;-84
2024/02/05 10:55:45;;;;;;;1.20;0.90;;;;;;;7.18;99.67;99355.19;106551;1255;101360;-83
2024/02/05 10:58:30;;;;;;;2.10;0.90;;;;;;;7.11;99.97;99361.03;106393;1256;100218;-85
2024/02/05 11:01:20;;;;;;;3.80;1.40;;;;;;;7.07;100.00;99353.52;106110;1256;99483;-86
2024/02/05 11:04:08;;;;;;;2.20;0.80;;;;;;;6.99;100.00;99351.00;106157;1264;96642;-85
2024/02/05 11:06:58;;;;;;;3.40;1.20;;;;;;;6.92;100.00;99345.78;106311;1260;97081;-80
2024/02/05 11:09:53;;;;;;;2.40;1.50;;;;;;;6.89;100.00;99355.92;106611;1260;100054;-84
2024/02/05 11:12:42;;;;;;;4.10;1.60;;;;;;;6.86;100.00;99358.06;106427;1257;100453;-87
2024/02/05 11:15:31;;;;;;;2.90;1.30;;;;;;;6.87;100.00;99349.95;106659;1262;99477;-86
2024/02/05 11:18:33;;;;;;;3.10;1.50;;;;;;;6.86;100.00;99357.20;106302;1257;96652;-89
2024/02/05 11:21:42;;;;;;;2.90;1.50;;;;;;;6.84;100.00;99353.98;105958;1264;96671;-77
2024/02/05 11:24:28;;;;;;;2.70;1.90;;;;;;;6.86;100.00;99349.99;105746;1260;100768;-84
2024/02/05 11:27:14;;;;;;;2.60;1.60;;;;;;;6.90;100.00;99346.30;106206;1257;99271;-83
2024/02/05 11:30:03;;;;;;;2.20;1.50;;;;;;;6.94;100.00;99344.61;106068;1262;99190;-87
2024/02/05 11:32:49;;;;;;;2.80;1.50;;;;;;;6.98;100.00;99344.20;105849;1261;97075;-83
2024/02/05 11:35:35;;;;;;;2.80;1.60;;;;;;;7.05;100.00;99340.42;106263;1256;96534;-86
2024/02/05 11:38:22;;;;;;;4.70;1.60;;;;;;;7.12;100.00;99340.38;105903;1257;101385;-84
2024/02/05 11:41:08;;;;;;;4.70;2.20;;;;;;;7.20;100.00;99340.97;106133;1258;99205;-83
2024/02/05 11:44:06;;;;;;;4.60;2.10;;;;;;;7.28;100.00;99336.19;106225;1257;98554;-82
2024/02/05 11:46:52;;;;;;;5.90;2.00;;;;;;;7.38;100.00;99336.29;106113;1257;96520;-83
2024/02/05 11:49:39;;;;;;;4.80;2.10;;;;;;;7.47;100.00;99340.43;106605;1259;97146;-83
2024/02/05 11:52:24;;;;;;;2.40;2.00;;;;;;;7.53;100.00;99338.70;106174;1257;99996;-83
2024/02/05 11:55:17;;;;;;;2.80;1.90;;;;;;;7.59;100.00;99344.71;105817;1257;100486;-83
2024/02/05 11:58:03;;;;;;;6.30;2.40;;;;;;;7.63;100.00;99335.55;106083;1257;99267;-82
2024/02/05 12:00:49;;;;;;;4.50;2.90;;;;;;;7.67;100.00;99332.45;106149;1258;96653;-84
2024/02/05 12:03:35;;;;;;;3.10;2.00;;;;;;;7.69;99.95;99333.23;106303;1262;97115;-84
2024/02/05 12:06:23;;;;;;;6.20;1.70;;;;;;;7.70;99.79;99347.02;105949;1259;100053;-83
2024/02/05 12:09:16;;;;;;;2.00;1.30;;;;;;;7.71;99.53;99348.48;106143;1260;100444;-84
2024/02/05 12:12:04;;;;;;;4.80;2.40;;;;;;;7.73;99.34;99350.31;106020;1263;99299;-83
2024/02/05 12:14:49;;;;;;;2.70;1.40;;;;;;;7.75;98.89;99352.20;106082;1257;96608;-85
2024/02/05 12:17:35;;;;;;;3.30;2.00;;;;;;;7.76;98.49;99353.48;107619;1256;94748;-87
2024/02/05 12:20:22;;;;;;;3.40;1.50;;;;;;;7.76;98.27;99358.25;107102;1260;101169;-90
2024/02/05 12:23:08;;;;;;;3.20;1.60;;;;;;;7.77;98.29;99363.27;106459;1260;99204;-87
2024/02/05 12:25:54;;;;;;;2.60;1.60;;;;;;;7.79;97.93;99363.09;106267;1257;97807;-86
2024/02/05 12:28:40;;;;;;;4.30;1.80;;;;;;;7.79;97.53;99366.90;106669;1258;96501;-87
2024/02/05 12:31:26;;;;;;;3.80;1.70;;;;;;;7.79;97.49;99362.31;106508;1257;97230;-88
2024/02/05 12:34:12;;;;;;;2.90;1.30;;;;;;;7.77;97.56;99366.29;106310;1266;100096;-79
2024/02/05 12:36:58;;;;;;;3.80;1.80;;;;;;;7.74;96.94;99365.48;106738;1263;99180;-79
2024/02/05 12:39:51;;;;;;;2.60;1.90;;;;;;;7.71;96.68;99356.20;106332;1263;98658;-76
2024/02/05 12:42:37;;;;;;;4.90;2.10;;;;;;;7.70;96.76;99356.94;105761;1260;97861;-76
2024/02/05 12:45:22;;;;;;;9.30;4.40;;;;;;;7.71;97.11;99356.46;105654;1263;96249;-85
2024/02/05 12:48:08;;;;;;;4.80;2.00;;;;;;;7.73;97.15;99361.80;106314;1262;100002;-79
2024/02/05 12:50:54;;;;;;;5.10;2.00;;;;;;;7.74;96.27;99368.11;105730;1264;100458;-79
2024/02/05 12:53:41;;;;;;;4.60;1.50;;;;;;;7.74;95.86;99363.27;105585;1257;97763;-80